Detall de PIREP

Printer-friendly versionPDF version

[2014/08/15 07:20:00]
Flight IATA:CT3412
Pilot Number:012
Company ICAO:CAT
Aircraft Type:B744/E
PAX:398
Departing Airport: LEBL
Destination Airport: UUEE
Alternate Airport:UUDD
Online: VATSIM
Route:AGENA/M084F380 UM985 ABLOM UL725 LEDRI UM985 JAN UM866 DBV UL999 SUPAK/K084F390 L999 BIGLU MNS MOSON A104 FK FK1T UM
Flight Level:F390
No Slew and time accel
No pause
Crash detect
Detect pilot in Cockpit between each 30 and 45 minutes
07:20 Zero fuel Weight: 472886 Lbs, Fuel Weight: 92868 Lbs
07:20 VATSIM:LEBL 150700Z 33008KT 250V010 9999 FEW023 21/16 Q1018 NOSIG
07:20 VATSIM:UUEE 150700Z 20003MPS 150V260 6000 -TSRA BKN026CB BKN100 21/20 Q1006 TEMPO VRB18MPS TSRA
07:21 Parking Brakes off
07:26 Take-off
07:26 Take off Weight: 564021 Lbs
07:26 Wind: 329º @ 007 Knots Heading: 246º
07:26 POS N41º 17´ 12´´ E002º 05´ 13´´
07:26 Gear Up: 176 Knots
07:26 Flaps:3 at 176 Knots
07:27 Flaps:2 at 225 Knots
07:27 Flaps:1 at 232 Knots
07:28 Flaps:0 at 252 Knots
07:41 Wind:275º@074 Knots Heading: 075º Ground Speed: 564 Knots Altitude 35964 ft
07:56 Wind:273º@106 Knots Heading: 030º Ground Speed: 543 Knots Altitude 38047 ft
08:11 Wind:268º@107 Knots Heading: 053º Ground Speed: 580 Knots Altitude 37939 ft
08:26 Wind:262º@068 Knots Heading: 051º Ground Speed: 551 Knots Altitude 38034 ft
08:37 TOC
08:37 Fuel Weight: 59991 Lb
08:41 Wind:248º@057 Knots Heading: 061º Ground Speed: 546 Knots Altitude 39055 ft
08:56 Wind:237º@056 Knots Heading: 066º Ground Speed: 548 Knots Altitude 39022 ft
09:11 Wind:230º@053 Knots Heading: 044º Ground Speed: 545 Knots Altitude 39028 ft
09:26 Wind:215º@051 Knots Heading: 046º Ground Speed: 544 Knots Altitude 38959 ft
09:41 Wind:209º@059 Knots Heading: 053º Ground Speed: 549 Knots Altitude 38910 ft
09:56 Wind:210º@089Knots Heading: 071º Ground Speed: 565 Knots Altitude 38874 ft
10:11 Wind:210º@088 Knots Heading: 074º Ground Speed: 558 Knots Altitude 38812 ft
10:21 TOD
10:21 Fuel Weight: 26833 Lb
10:26 Wind:226º@060 Knots Heading: 076º Ground Speed: 498 Knots Altitude 25101 ft
10:34 Flaps:1 at 231 Knots
10:36 Flaps:2 at 225 Knots
10:37 Flaps:3 at 206 Knots
10:37 Flaps:4 at 195 Knots
10:39 Gear Down: 191 Knots
10:39 Flaps:5 at 190 Knots
10:40 Flaps:6 at 179 Knots
10:40 Flaps:5 at 179 Knots
10:40 Flaps:6 at 176 Knots
10:40 Flaps:5 at 176 Knots
10:40 Flaps:6 at 169 Knots
10:41 Wind:175º@007 Knots Heading: 253º Ground Speed: 157 Knots Altitude 1817 ft
10:43 TouchDown:Rate -269 ft/min Speed: 131 Knots
10:43 VATSIM:UUEE 151030Z 24005MPS 170V260 9999 SCT033 BKN200 26/18 Q1005 NOSIG
10:43 Land
10:43 Wind:166º@008 Knots
10:43 Heading: 257º
10:43 Flight Duration: 03:17
10:43 Landing Weight: 495331 Lbs
10:43 POS N55º 58´ 14´´ E037º 25´ 00´´
10:46 Parking brakes on
10:46 Block to Block Duration: 03:25
10:46 Final Fuel: 21940 Lbls
10:46 Spent Fuel: 70928 Lbls
10:46 Flight Length: 1717 NM
10:46 TOD Land Length: 132 NM

Exportar CSV

Powered by Drupal - Modified by Danger4k